Time;durP1;ratioP1;P1;durP2;ratioP2;P2;SDS_P1;SDS_P2;PMS_P1;PMS_P2;Temp;Humidity;BMP_temperature;BMP_pressure;BME280_temperature;BME280_humidity;BME280_pressure;Samples;Min_cycle;Max_cycle;Signal;HPM_P1;HPM_P2
2021/11/18 00:00:08;;;;;;;;;;;;;;;;;;5085517;28;19913;-70
2021/11/18 00:02:35;;;;;;;;;;;;;;;;;;5082464;28;19960;-71
2021/11/18 00:05:02;;;;;;;;;;;;;;;;;;5077655;28;19925;-70
2021/11/18 00:07:29;;;;;;;;;;;;;;;;;;5083522;28;19925;-71
2021/11/18 00:09:56;;;;;;;;;;;;;;;;;;5078637;28;19947;-70
2021/11/18 00:12:25;;;;;;;;;;;;;;;;;;5078145;28;19929;-71
2021/11/18 00:14:52;;;;;;;;;;;;;;;;;;5069078;28;19924;-71
2021/11/18 00:17:19;;;;;;;;;;;;;;;;;;5066504;28;19936;-70
2021/11/18 00:19:45;;;;;;;;;;;;;;;;;;5063350;28;19931;-71
2021/11/18 00:22:12;;;;;;;;;;;;;;;;;;5065611;28;19935;-71
2021/11/18 00:24:39;;;;;;;;;;;;;;;;;;5065738;28;19925;-71
2021/11/18 00:27:06;;;;;;;;;;;;;;;;;;5067339;28;19925;-70
2021/11/18 00:29:33;;;;;;;;;;;;;;;;;;5067491;28;20410;-70
2021/11/18 00:32:00;;;;;;;;;;;;;;;;;;5062916;28;20295;-71
2021/11/18 00:34:27;;;;;;;;;;;;;;;;;;5069960;28;19924;-70
2021/11/18 00:36:54;;;;;;;;;;;;;;;;;;5066112;28;19960;-71
2021/11/18 00:39:21;;;;;;;;;;;;;;;;;;5070531;28;19930;-71
2021/11/18 00:41:48;;;;;;;;;;;;;;;;;;5062010;28;19932;-71
2021/11/18 00:44:15;;;;;;;;;;;;;;;;;;5084462;28;19935;-70
2021/11/18 00:46:42;;;;;;;;;;;;;;;;;;5088720;28;19909;-71
2021/11/18 00:49:10;;;;;;;;;;;;;;;;;;5061774;28;20023;-71
2021/11/18 00:51:39;;;;;;;;;;;;;;;;;;5073613;28;19925;-70
2021/11/18 00:54:06;;;;;;;;;;;;;;;;;;5087088;28;20362;-71
2021/11/18 00:56:33;;;;;;;;;;;;;;;;;;5064714;28;20316;-71
2021/11/18 00:59:00;;;;;;;;;;;;;;;;;;5056301;28;19931;-71
2021/11/18 01:01:27;;;;;;;;;;;;;;;;;;5059803;28;20395;-71
2021/11/18 01:03:54;;;;;;;;;;;;;;;;;;5062021;28;19931;-71
2021/11/18 01:06:21;;;;;;;;;;;;;;;;;;5064005;28;19925;-71
2021/11/18 01:08:48;;;;;;;;;;;;;;;;;;5058268;28;19933;-71
2021/11/18 01:11:15;;;;;;;;;;;;;;;;;;5057873;28;20482;-72
2021/11/18 01:13:42;;;;;;;;;;;;;;;;;;5068004;28;19998;-72
2021/11/18 01:16:08;;;;;;;;;;;;;;;;;;5066934;28;19928;-70
2021/11/18 01:18:35;;;;;;;;;;;;;;;;;;5055474;28;19924;-71
2021/11/18 01:21:02;;;;;;;;;;;;;;;;;;5061973;28;20292;-71
2021/11/18 01:23:29;;;;;;;;;;;;;;;;;;5067403;28;20388;-71
2021/11/18 01:25:56;;;;;;;;;;;;;;;;;;5062782;28;19970;-71
2021/11/18 01:28:23;;;;;;;;;;;;;;;;;;5057694;28;19928;-70
2021/11/18 01:30:50;;;;;;;;;;;;;;;;;;5081471;28;19912;-68
2021/11/18 01:33:17;;;;;;;;;;;;;;;;;;5082349;28;19928;-69
2021/11/18 01:35:44;;;;;;;;;;;;;;;;;;5063150;28;19956;-70
2021/11/18 01:38:11;;;;;;;;;;;;;;;;;;5064769;28;19925;-69
2021/11/18 01:40:38;;;;;;;;;;;;;;;;;;5065338;28;19933;-70
2021/11/18 01:43:05;;;;;;;;;;;;;;;;;;5061250;28;19987;-70
2021/11/18 01:45:32;;;;;;;;;;;;;;;;;;5066110;28;19973;-71
2021/11/18 01:47:59;;;;;;;;;;;;;;;;;;5060629;28;20308;-69
2021/11/18 01:50:26;;;;;;;;;;;;;;;;;;5068015;28;19925;-71
2021/11/18 01:52:53;;;;;;;;;;;;;;;;;;5066869;28;20408;-71
2021/11/18 01:55:20;;;;;;;;;;;;;;;;;;5067930;28;19931;-70
2021/11/18 01:57:47;;;;;;;;;;;;;;;;;;5060085;28;19925;-70
2021/11/18 02:00:14;;;;;;;;;;;;;;;;;;5065536;28;20486;-71
2021/11/18 02:02:41;;;;;;;;;;;;;;;;;;5056050;28;20103;-70
2021/11/18 02:05:08;;;;;;;;;;;;;;;;;;5067273;28;20384;-70
2021/11/18 02:07:35;;;;;;;;;;;;;;;;;;5060374;28;20281;-71
2021/11/18 02:10:02;;;;;;;;;;;;;;;;;;5066217;28;19931;-70
2021/11/18 02:12:29;;;;;;;;;;;;;;;;;;5060052;28;19924;-71
2021/11/18 02:14:56;;;;;;;;;;;;;;;;;;5059083;28;19932;-71
2021/11/18 02:17:23;;;;;;;;;;;;;;;;;;5063777;28;20537;-72
2021/11/18 02:19:50;;;;;;;;;;;;;;;;;;5063888;28;19925;-71
2021/11/18 02:22:16;;;;;;;;;;;;;;;;;;5070712;28;19932;-71
2021/11/18 02:24:43;;;;;;;;;;;;;;;;;;5064541;28;19925;-71
2021/11/18 02:27:10;;;;;;;;;;;;;;;;;;5070493;28;19925;-71
2021/11/18 02:29:37;;;;;;;;;;;;;;;;;;5067054;28;19925;-71
2021/11/18 02:32:04;;;;;;;;;;;;;;;;;;5061722;28;20318;-71
2021/11/18 02:34:31;;;;;;;;;;;;;;;;;;5061265;28;19925;-71
2021/11/18 02:36:58;;;;;;;;;;;;;;;;;;5062535;28;19937;-71
2021/11/18 02:39:25;;;;;;;;;;;;;;;;;;5067533;28;19925;-70
2021/11/18 02:41:52;;;;;;;;;;;;;;;;;;5058295;28;20381;-70
2021/11/18 02:44:19;;;;;;;;;;;;;;;;;;5061174;28;20423;-71
2021/11/18 02:46:46;;;;;;;;;;;;;;;;;;5061648;28;19924;-72
2021/11/18 02:49:13;;;;;;;;;;;;;;;;;;5066659;28;19932;-70
2021/11/18 02:51:40;;;;;;;;;;;;;;;;;;5059202;28;19924;-70
2021/11/18 02:54:07;;;;;;;;;;;;;;;;;;5066280;28;20368;-70
2021/11/18 02:56:34;;;;;;;;;;;;;;;;;;5058109;28;19932;-69
2021/11/18 02:59:01;;;;;;;;;;;;;;;;;;5060031;28;19928;-70
2021/11/18 03:01:28;;;;;;;;;;;;;;;;;;5055087;28;19925;-71
2021/11/18 03:03:55;;;;;;;;;;;;;;;;;;5057100;28;19932;-70
2021/11/18 03:06:22;;;;;;;;;;;;;;;;;;5055136;28;19929;-72
2021/11/18 03:08:49;;;;;;;;;;;;;;;;;;5066802;28;20293;-70
2021/11/18 03:11:16;;;;;;;;;;;;;;;;;;5060215;28;20361;-70
2021/11/18 03:13:43;;;;;;;;;;;;;;;;;;5056381;28;19936;-72
2021/11/18 03:16:10;;;;;;;;;;;;;;;;;;5060457;28;19925;-70
2021/11/18 03:18:37;;;;;;;;;;;;;;;;;;5059879;28;20440;-70
2021/11/18 03:21:04;;;;;;;;;;;;;;;;;;5063964;28;19931;-71
2021/11/18 03:23:31;;;;;;;;;;;;;;;;;;5071035;28;19924;-71
2021/11/18 03:25:58;;;;;;;;;;;;;;;;;;5068203;28;19935;-70
2021/11/18 03:28:25;;;;;;;;;;;;;;;;;;5062627;28;19932;-70
2021/11/18 03:30:52;;;;;;;;;;;;;;;;;;5064077;28;19928;-71
2021/11/18 03:33:19;;;;;;;;;;;;;;;;;;5064307;28;20393;-71
2021/11/18 03:35:46;;;;;;;;;;;;;;;;;;5067630;28;19964;-70
2021/11/18 03:38:12;;;;;;;;;;;;;;;;;;5072188;28;19924;-71
2021/11/18 03:40:39;;;;;;;;;;;;;;;;;;5069965;28;20244;-71
2021/11/18 03:43:09;;;;;;;;;;;;;;;;;;5066985;28;19931;-70
2021/11/18 03:45:37;;;;;;;;;;;;;;;;;;5069357;28;20414;-70
2021/11/18 03:48:04;;;;;;;;;;;;;;;;;;5069012;28;20022;-71
2021/11/18 03:50:30;;;;;;;;;;;;;;;;;;5077509;28;19924;-70
2021/11/18 03:52:57;;;;;;;;;;;;;;;;;;5072486;28;19964;-70
2021/11/18 03:55:24;;;;;;;;;;;;;;;;;;5086039;28;19924;-71
2021/11/18 03:57:53;;;;;;;;;;;;;;;;;;5084435;28;19935;-70
2021/11/18 04:00:20;;;;;;;;;;;;;;;;;;5078960;28;19924;-70
2021/11/18 04:02:47;;;;;;;;;;;;;;;;;;5067728;28;19990;-71
2021/11/18 04:05:13;;;;;;;;;;;;;;;;;;5067725;28;19929;-71
2021/11/18 04:07:40;;;;;;;;;;;;;;;;;;5066413;28;19932;-71
2021/11/18 04:10:07;;;;;;;;;;;;;;;;;;5074818;28;19928;-72
2021/11/18 04:12:34;;;;;;;;;;;;;;;;;;5061293;28;19933;-71
2021/11/18 04:15:01;;;;;;;;;;;;;;;;;;5064532;28;20287;-70
2021/11/18 04:17:28;;;;;;;;;;;;;;;;;;5064693;28;19925;-71
2021/11/18 04:19:55;;;;;;;;;;;;;;;;;;5074781;28;19924;-71
2021/11/18 04:22:22;;;;;;;;;;;;;;;;;;5071074;28;19934;-70
2021/11/18 04:24:49;;;;;;;;;;;;;;;;;;5061034;28;19948;-72
2021/11/18 04:27:16;;;;;;;;;;;;;;;;;;5070307;28;20304;-70
2021/11/18 04:29:43;;;;;;;;;;;;;;;;;;5058718;28;20404;-70
2021/11/18 04:32:10;;;;;;;;;;;;;;;;;;5062186;28;19929;-69
2021/11/18 04:34:37;;;;;;;;;;;;;;;;;;5063610;28;19932;-69
2021/11/18 04:37:04;;;;;;;;;;;;;;;;;;5064160;28;19932;-72
2021/11/18 04:39:31;;;;;;;;;;;;;;;;;;5063710;28;19924;-71
2021/11/18 04:41:58;;;;;;;;;;;;;;;;;;5069909;28;19947;-69
2021/11/18 04:44:25;;;;;;;;;;;;;;;;;;5062860;28;19928;-69
2021/11/18 04:46:53;;;;;;;;;;;;;;;;;;5062989;28;19931;-70
2021/11/18 04:49:20;;;;;;;;;;;;;;;;;;5067348;28;20395;-71
2021/11/18 04:51:47;;;;;;;;;;;;;;;;;;5064916;28;20384;-70
2021/11/18 04:54:14;;;;;;;;;;;;;;;;;;5061084;28;19936;-72
2021/11/18 04:56:41;;;;;;;;;;;;;;;;;;5062053;28;19931;-71
2021/11/18 04:59:08;;;;;;;;;;;;;;;;;;5061981;28;19925;-69
2021/11/18 05:01:35;;;;;;;;;;;;;;;;;;5062404;28;19930;-71
2021/11/18 05:04:02;;;;;;;;;;;;;;;;;;5064557;28;19924;-68
2021/11/18 05:06:29;;;;;;;;;;;;;;;;;;5059219;28;19924;-71
2021/11/18 05:08:55;;;;;;;;;;;;;;;;;;5059628;28;19931;-69
2021/11/18 05:11:22;;;;;;;;;;;;;;;;;;5056782;28;19925;-69
2021/11/18 05:13:49;;;;;;;;;;;;;;;;;;5067962;28;19931;-69
2021/11/18 05:16:16;;;;;;;;;;;;;;;;;;5065865;28;19925;-69
2021/11/18 05:18:43;;;;;;;;;;;;;;;;;;5060769;28;19928;-71
2021/11/18 05:21:12;;;;;;;;;;;;;;;;;;5061331;28;19931;-68
2021/11/18 05:23:39;;;;;;;;;;;;;;;;;;5058896;28;19925;-75
2021/11/18 05:26:06;;;;;;;;;;;;;;;;;;5063479;28;20030;-70
2021/11/18 05:28:35;;;;;;;;;;;;;;;;;;5065019;28;19925;-70
2021/11/18 05:31:02;;;;;;;;;;;;;;;;;;5063453;28;19924;-69
2021/11/18 05:33:29;;;;;;;;;;;;;;;;;;5055653;28;20007;-70
2021/11/18 05:35:56;;;;;;;;;;;;;;;;;;5064423;28;19928;-74
2021/11/18 05:38:23;;;;;;;;;;;;;;;;;;5057963;28;20007;-69
2021/11/18 05:40:50;;;;;;;;;;;;;;;;;;5065363;28;20086;-71
2021/11/18 05:43:17;;;;;;;;;;;;;;;;;;5070756;28;20010;-70
2021/11/18 05:45:44;;;;;;;;;;;;;;;;;;5068718;28;20304;-73
2021/11/18 05:48:11;;;;;;;;;;;;;;;;;;5057677;28;19925;-70
2021/11/18 05:50:38;;;;;;;;;;;;;;;;;;5056870;28;20294;-73
2021/11/18 05:53:05;;;;;;;;;;;;;;;;;;5059122;28;20003;-69
2021/11/18 05:55:32;;;;;;;;;;;;;;;;;;5059782;28;19928;-69
2021/11/18 05:57:59;;;;;;;;;;;;;;;;;;5060832;28;19925;-70
2021/11/18 06:00:26;;;;;;;;;;;;;;;;;;5070634;28;20319;-69
2021/11/18 06:02:53;;;;;;;;;;;;;;;;;;5061584;28;20303;-70
2021/11/18 06:05:20;;;;;;;;;;;;;;;;;;5060377;28;20187;-69
2021/11/18 06:07:47;;;;;;;;;;;;;;;;;;5060035;28;20039;-70
2021/11/18 06:10:14;;;;;;;;;;;;;;;;;;5060475;28;20526;-68
2021/11/18 06:12:40;;;;;;;;;;;;;;;;;;5065045;28;20316;-72
2021/11/18 06:15:09;;;;;;;;;;;;;;;;;;5056878;28;20432;-70
2021/11/18 06:17:36;;;;;;;;;;;;;;;;;;5060749;28;20398;-70
2021/11/18 06:20:03;;;;;;;;;;;;;;;;;;5054626;28;19929;-72
2021/11/18 06:22:30;;;;;;;;;;;;;;;;;;5058182;28;19935;-69
2021/11/18 06:24:56;;;;;;;;;;;;;;;;;;5057785;28;19924;-69
2021/11/18 06:27:23;;;;;;;;;;;;;;;;;;5057193;28;19944;-70
2021/11/18 06:29:50;;;;;;;;;;;;;;;;;;5053670;28;19929;-70
2021/11/18 06:32:17;;;;;;;;;;;;;;;;;;5045192;28;20073;-73
2021/11/18 06:34:44;;;;;;;;;;;;;;;;;;5046944;28;20403;-72
2021/11/18 06:37:11;;;;;;;;;;;;;;;;;;5055852;28;20023;-76
2021/11/18 06:39:38;;;;;;;;;;;;;;;;;;5046614;28;19933;-70
2021/11/18 06:42:05;;;;;;;;;;;;;;;;;;5042727;28;19933;-72
2021/11/18 06:44:32;;;;;;;;;;;;;;;;;;5049020;28;20007;-71
2021/11/18 06:46:59;;;;;;;;;;;;;;;;;;5049295;28;20629;-72
2021/11/18 06:49:26;;;;;;;;;;;;;;;;;;5047902;28;20327;-70
2021/11/18 06:51:54;;;;;;;;;;;;;;;;;;5043612;28;19944;-70
2021/11/18 06:54:21;;;;;;;;;;;;;;;;;;5041337;28;19981;-68
2021/11/18 06:56:48;;;;;;;;;;;;;;;;;;5048293;28;19940;-71
2021/11/18 06:59:15;;;;;;;;;;;;;;;;;;5046377;28;19951;-72
2021/11/18 07:01:42;;;;;;;;;;;;;;;;;;5043133;28;21179;-72
2021/11/18 07:04:09;;;;;;;;;;;;;;;;;;5052023;28;19973;-69
2021/11/18 07:06:36;;;;;;;;;;;;;;;;;;5050190;28;20633;-73
2021/11/18 07:09:03;;;;;;;;;;;;;;;;;;5051367;28;20454;-73
2021/11/18 07:11:30;;;;;;;;;;;;;;;;;;5045867;28;20369;-75
2021/11/18 07:13:57;;;;;;;;;;;;;;;;;;5049324;28;20443;-68
2021/11/18 07:16:24;;;;;;;;;;;;;;;;;;5047657;28;20271;-70
2021/11/18 07:18:51;;;;;;;;;;;;;;;;;;5050818;28;19931;-72
2021/11/18 07:21:18;;;;;;;;;;;;;;;;;;5050607;28;19929;-71
2021/11/18 07:23:45;;;;;;;;;;;;;;;;;;5048563;28;20569;-70
2021/11/18 07:26:12;;;;;;;;;;;;;;;;;;5048682;28;19928;-69
2021/11/18 07:28:39;;;;;;;;;;;;;;;;;;5048737;28;19924;-73
2021/11/18 07:31:06;;;;;;;;;;;;;;;;;;5051740;28;19928;-72
2021/11/18 07:33:33;;;;;;;;;;;;;;;;;;5055055;28;20171;-69
2021/11/18 07:36:00;;;;;;;;;;;;;;;;;;5060912;28;19940;-70
2021/11/18 07:38:27;;;;;;;;;;;;;;;;;;5060585;28;19951;-69
2021/11/18 07:40:53;;;;;;;;;;;;;;;;;;5059253;28;20296;-70
2021/11/18 07:43:22;;;;;;;;;;;;;;;;;;5061346;28;19933;-69
2021/11/18 07:45:49;;;;;;;;;;;;;;;;;;5060548;28;19924;-71
2021/11/18 07:48:16;;;;;;;;;;;;;;;;;;5058275;28;19929;-69
2021/11/18 07:50:43;;;;;;;;;;;;;;;;;;5051435;28;19924;-69
2021/11/18 07:53:10;;;;;;;;;;;;;;;;;;5062760;28;19924;-72
2021/11/18 07:55:37;;;;;;;;;;;;;;;;;;5062693;28;20314;-69
2021/11/18 07:58:04;;;;;;;;;;;;;;;;;;5051803;28;19925;-71
2021/11/18 08:00:31;;;;;;;;;;;;;;;;;;5055702;28;19936;-69
2021/11/18 08:02:58;;;;;;;;;;;;;;;;;;5059614;28;19924;-68
2021/11/18 08:05:24;;;;;;;;;;;;;;;;;;5055932;28;20791;-69
2021/11/18 08:07:51;;;;;;;;;;;;;;;;;;5059785;28;19932;-70
2021/11/18 08:10:18;;;;;;;;;;;;;;;;;;5058901;28;19925;-69
2021/11/18 08:12:45;;;;;;;;;;;;;;;;;;5062442;28;20418;-69
2021/11/18 08:15:12;;;;;;;;;;;;;;;;;;5065654;28;20312;-71
2021/11/18 08:17:39;;;;;;;;;;;;;;;;;;5061106;28;19948;-69
2021/11/18 08:20:06;;;;;;;;;;;;;;;;;;5064036;28;20307;-71
2021/11/18 08:22:33;;;;;;;;;;;;;;;;;;5067233;28;19941;-68
2021/11/18 08:25:00;;;;;;;;;;;;;;;;;;5064406;28;19947;-71
2021/11/18 08:27:27;;;;;;;;;;;;;;;;;;5064403;28;19924;-69
2021/11/18 08:29:54;;;;;;;;;;;;;;;;;;5059189;28;19928;-71
2021/11/18 08:32:21;;;;;;;;;;;;;;;;;;5062665;28;20286;-69
2021/11/18 08:34:48;;;;;;;;;;;;;;;;;;5063044;28;19924;-69
2021/11/18 08:37:15;;;;;;;;;;;;;;;;;;5062325;28;19928;-71
2021/11/18 08:39:42;;;;;;;;;;;;;;;;;;5065438;28;19924;-70
2021/11/18 08:42:09;;;;;;;;;;;;;;;;;;5064935;28;20281;-69
2021/11/18 08:44:36;;;;;;;;;;;;;;;;;;5063082;28;20291;-71
2021/11/18 08:47:03;;;;;;;;;;;;;;;;;;5060216;28;19933;-69
2021/11/18 08:49:30;;;;;;;;;;;;;;;;;;5066017;28;20391;-70
2021/11/18 08:51:57;;;;;;;;;;;;;;;;;;5062075;28;19980;-72
2021/11/18 08:54:24;;;;;;;;;;;;;;;;;;5063632;28;20019;-70
2021/11/18 08:56:51;;;;;;;;;;;;;;;;;;5047718;28;19932;-69
2021/11/18 08:59:18;;;;;;;;;;;;;;;;;;5060516;28;19925;-69
2021/11/18 09:01:45;;;;;;;;;;;;;;;;;;5065937;28;19935;-68
2021/11/18 09:04:12;;;;;;;;;;;;;;;;;;5059088;28;20303;-69
2021/11/18 09:06:39;;;;;;;;;;;;;;;;;;5054668;28;19944;-68
2021/11/18 09:09:06;;;;;;;;;;;;;;;;;;5048766;28;20292;-70
2021/11/18 09:11:33;;;;;;;;;;;;;;;;;;5058567;28;20008;-70
2021/11/18 09:14:01;;;;;;;;;;;;;;;;;;5055410;28;20015;-69
2021/11/18 09:16:28;;;;;;;;;;;;;;;;;;5048451;28;20517;-69
2021/11/18 09:18:55;;;;;;;;;;;;;;;;;;5055353;28;20023;-69
2021/11/18 09:21:22;;;;;;;;;;;;;;;;;;5064929;28;19929;-69
2021/11/18 09:23:49;;;;;;;;;;;;;;;;;;5063806;28;19971;-69
2021/11/18 09:26:16;;;;;;;;;;;;;;;;;;5065380;28;20400;-70
2021/11/18 09:28:43;;;;;;;;;;;;;;;;;;5065500;28;19976;-70
2021/11/18 09:31:10;;;;;;;;;;;;;;;;;;5064293;28;20045;-70
2021/11/18 09:33:37;;;;;;;;;;;;;;;;;;5063597;28;20046;-70
2021/11/18 09:36:04;;;;;;;;;;;;;;;;;;5061803;28;19970;-69
2021/11/18 09:38:31;;;;;;;;;;;;;;;;;;5065526;28;19931;-71
2021/11/18 09:40:58;;;;;;;;;;;;;;;;;;5060169;28;19933;-70
2021/11/18 09:43:25;;;;;;;;;;;;;;;;;;5066928;28;20372;-72
2021/11/18 09:45:52;;;;;;;;;;;;;;;;;;5064819;28;20296;-70
2021/11/18 09:48:19;;;;;;;;;;;;;;;;;;5062283;28;19955;-68
2021/11/18 09:50:46;;;;;;;;;;;;;;;;;;5067396;28;20331;-68
2021/11/18 09:53:13;;;;;;;;;;;;;;;;;;5067207;28;19962;-69
2021/11/18 09:55:40;;;;;;;;;;;;;;;;;;5064934;28;19924;-72
2021/11/18 09:58:07;;;;;;;;;;;;;;;;;;5065308;28;19925;-70
2021/11/18 10:00:34;;;;;;;;;;;;;;;;;;5065940;28;19964;-69
2021/11/18 10:03:01;;;;;;;;;;;;;;;;;;5064320;28;20079;-72
2021/11/18 10:05:28;;;;;;;;;;;;;;;;;;5067203;28;19925;-70
2021/11/18 10:07:55;;;;;;;;;;;;;;;;;;5063806;28;19924;-70
2021/11/18 10:10:22;;;;;;;;;;;;;;;;;;5061676;28;19932;-70
2021/11/18 10:12:49;;;;;;;;;;;;;;;;;;5062024;28;20333;-68
2021/11/18 10:15:19;;;;;;;;;;;;;;;;;;5051740;28;20312;-71
2021/11/18 10:17:48;;;;;;;;;;;;;;;;;;5061756;28;19936;-69
2021/11/18 10:20:15;;;;;;;;;;;;;;;;;;5065869;28;19928;-69
2021/11/18 10:22:42;;;;;;;;;;;;;;;;;;5044352;28;20355;-72
2021/11/18 10:25:09;;;;;;;;;;;;;;;;;;5081093;22;19970;-63
2021/11/18 10:27:36;;;;;;;;;;;;;;;;;;5088793;28;19924;-62
2021/11/18 10:30:03;;;;;;;;;;;;;;;;;;5090848;28;19924;-65
2021/11/18 10:32:30;;;;;;;;;;;;;;;;;;5081964;28;19951;-64
2021/11/18 10:34:57;;;;;;;;;;;;;;;;;;5090534;28;19928;-65
2021/11/18 10:37:24;;;;;;;;;;;;;;;;;;5091831;28;19924;-64
2021/11/18 10:39:51;;;;;;;;;;;;;;;;;;5091374;28;20364;-62
2021/11/18 10:42:18;;;;;;;;;;;;;;;;;;5090389;28;19987;-66
2021/11/18 10:44:45;;;;;;;;;;;;;;;;;;5095668;28;20296;-65
2021/11/18 10:47:12;;;;;;;;;;;;;;;;;;5080074;28;20303;-63
2021/11/18 10:49:40;;;;;;;;;;;;;;;;;;5084076;28;19980;-64
2021/11/18 10:52:08;;;;;;;;;;;;;;;;;;5096538;28;19928;-64
2021/11/18 10:54:35;;;;;;;;;;;;;;;;;;5086900;28;19955;-65
2021/11/18 10:57:02;;;;;;;;;;;;;;;;;;5079788;28;19938;-65
2021/11/18 10:59:29;;;;;;;;;;;;;;;;;;5082573;28;20359;-64
2021/11/18 11:01:56;;;;;;;;;;;;;;;;;;5078933;28;19954;-64
2021/11/18 11:04:23;;;;;;;;;;;;;;;;;;5078867;28;19924;-65
2021/11/18 11:06:50;;;;;;;;;;;;;;;;;;5079789;28;19928;-64
2021/11/18 11:09:17;;;;;;;;;;;;;;;;;;5081993;28;19924;-64
2021/11/18 11:11:44;;;;;;;;;;;;;;;;;;5082020;28;20332;-65
2021/11/18 11:14:12;;;;;;;;;;;;;;;;;;5081639;28;20001;-64
2021/11/18 11:16:39;;;;;;;;;;;;;;;;;;5081291;28;19958;-64
2021/11/18 11:19:06;;;;;;;;;;;;;;;;;;5084810;28;19924;-64
2021/11/18 11:21:33;;;;;;;;;;;;;;;;;;5086053;28;19931;-64
2021/11/18 11:24:00;;;;;;;;;;;;;;;;;;5081161;28;19936;-63
2021/11/18 11:26:27;;;;;;;;;;;;;;;;;;5077288;28;20038;-64
2021/11/18 11:28:54;;;;;;;;;;;;;;;;;;5077270;28;19936;-64
2021/11/18 11:31:20;;;;;;;;;;;;;;;;;;5080875;28;20001;-64
2021/11/18 11:33:47;;;;;;;;;;;;;;;;;;5079060;28;19928;-64
2021/11/18 11:36:15;;;;;;;;;;;;;;;;;;5085683;28;19934;-64
2021/11/18 11:38:42;;;;;;;;;;;;;;;;;;5083048;28;20291;-65
2021/11/18 11:41:09;;;;;;;;;;;;;;;;;;5089987;28;19924;-63
2021/11/18 11:43:36;;;;;;;;;;;;;;;;;;5086879;28;19924;-64
2021/11/18 11:46:03;;;;;;;;;;;;;;;;;;5084244;28;19945;-64
2021/11/18 11:48:30;;;;;;;;;;;;;;;;;;5088406;28;19928;-62
2021/11/18 11:50:57;;;;;;;;;;;;;;;;;;5088398;28;20055;-64
2021/11/18 11:53:24;;;;;;;;;;;;;;;;;;5089888;28;19924;-63
2021/11/18 11:55:51;;;;;;;;;;;;;;;;;;5084018;28;20331;-64
2021/11/18 11:58:18;;;;;;;;;;;;;;;;;;5079252;28;20007;-64
2021/11/18 12:00:46;;;;;;;;;;;;;;;;;;5087509;28;19939;-65
2021/11/18 12:03:13;;;;;;;;;;;;;;;;;;5082922;28;20380;-64
2021/11/18 12:05:40;;;;;;;;;;;;;;;;;;5083817;28;19932;-63
2021/11/18 12:08:07;;;;;;;;;;;;;;;;;;5082512;28;20368;-63
2021/11/18 12:10:34;;;;;;;;;;;;;;;;;;5084205;28;19924;-64
2021/11/18 12:13:01;;;;;;;;;;;;;;;;;;5083861;28;19924;-63
2021/11/18 12:15:28;;;;;;;;;;;;;;;;;;5085602;28;20287;-66
2021/11/18 12:17:55;;;;;;;;;;;;;;;;;;5086820;28;19931;-64
2021/11/18 12:20:22;;;;;;;;;;;;;;;;;;5079747;28;20019;-64
2021/11/18 12:22:49;;;;;;;;;;;;;;;;;;5089282;28;20306;-64
2021/11/18 12:25:17;;;;;;;;;;;;;;;;;;5088166;28;19924;-66
2021/11/18 12:27:44;;;;;;;;;;;;;;;;;;5092955;28;19924;-64
2021/11/18 12:30:11;;;;;;;;;;;;;;;;;;5081430;28;19939;-64
2021/11/18 12:32:38;;;;;;;;;;;;;;;;;;5081826;28;19924;-65
2021/11/18 12:35:05;;;;;;;;;;;;;;;;;;5082879;28;20014;-64
2021/11/18 12:37:32;;;;;;;;;;;;;;;;;;5087938;28;19954;-64
2021/11/18 12:39:59;;;;;;;;;;;;;;;;;;5087181;28;19950;-64
2021/11/18 12:42:26;;;;;;;;;;;;;;;;;;5085830;28;19924;-64
2021/11/18 12:44:53;;;;;;;;;;;;;;;;;;5087981;28;19924;-64
2021/11/18 12:47:20;;;;;;;;;;;;;;;;;;5086085;28;19924;-64
2021/11/18 12:49:47;;;;;;;;;;;;;;;;;;5083390;28;19969;-64
2021/11/18 12:52:14;;;;;;;;;;;;;;;;;;5081904;28;20451;-64
2021/11/18 12:54:41;;;;;;;;;;;;;;;;;;5096522;28;19983;-63
2021/11/18 12:57:09;;;;;;;;;;;;;;;;;;5102157;28;19932;-63
2021/11/18 12:59:36;;;;;;;;;;;;;;;;;;5081902;28;20026;-64
2021/11/18 13:02:03;;;;;;;;;;;;;;;;;;5084172;28;20396;-64
2021/11/18 13:04:30;;;;;;;;;;;;;;;;;;5084754;28;19928;-64
2021/11/18 13:06:57;;;;;;;;;;;;;;;;;;5083425;28;19931;-64
2021/11/18 13:09:24;;;;;;;;;;;;;;;;;;5088205;28;19924;-64
2021/11/18 13:11:51;;;;;;;;;;;;;;;;;;5082012;28;19924;-64
2021/11/18 13:14:18;;;;;;;;;;;;;;;;;;5092726;28;20015;-63
2021/11/18 13:16:45;;;;;;;;;;;;;;;;;;5083027;28;19929;-64
2021/11/18 13:19:12;;;;;;;;;;;;;;;;;;5083255;28;19950;-64
2021/11/18 13:21:39;;;;;;;;;;;;;;;;;;5080670;28;19928;-64
2021/11/18 13:24:06;;;;;;;;;;;;;;;;;;5085660;28;19931;-63
2021/11/18 13:26:33;;;;;;;;;;;;;;;;;;5080659;28;20384;-63
2021/11/18 13:29:00;;;;;;;;;;;;;;;;;;5076568;28;19951;-65
2021/11/18 13:31:27;;;;;;;;;;;;;;;;;;5082634;28;19924;-63
2021/11/18 13:33:54;;;;;;;;;;;;;;;;;;5085045;28;20311;-63
2021/11/18 13:36:21;;;;;;;;;;;;;;;;;;5082400;28;19929;-63
2021/11/18 13:38:48;;;;;;;;;;;;;;;;;;5079901;28;20276;-61
2021/11/18 13:41:17;;;;;;;;;;;;;;;;;;5082430;28;19968;-64
2021/11/18 13:43:44;;;;;;;;;;;;;;;;;;5083571;28;19927;-64
2021/11/18 13:46:11;;;;;;;;;;;;;;;;;;5079970;28;20407;-63
2021/11/18 13:48:38;;;;;;;;;;;;;;;;;;5079107;28;20276;-63
2021/11/18 13:51:05;;;;;;;;;;;;;;;;;;5081433;28;19961;-64
2021/11/18 13:53:32;;;;;;;;;;;;;;;;;;5084298;28;19932;-64
2021/11/18 13:55:59;;;;;;;;;;;;;;;;;;5080707;28;19931;-66
2021/11/18 13:58:26;;;;;;;;;;;;;;;;;;5077800;28;19940;-64
2021/11/18 14:00:53;;;;;;;;;;;;;;;;;;5082914;28;20315;-64
2021/11/18 14:03:20;;;;;;;;;;;;;;;;;;5080665;28;19930;-64
2021/11/18 14:05:46;;;;;;;;;;;;;;;;;;5080078;28;19928;-63
2021/11/18 14:08:13;;;;;;;;;;;;;;;;;;5083786;28;19924;-65
2021/11/18 14:10:40;;;;;;;;;;;;;;;;;;5083945;28;19974;-65
2021/11/18 14:13:07;;;;;;;;;;;;;;;;;;5081209;28;20383;-62
2021/11/18 14:15:35;;;;;;;;;;;;;;;;;;5088147;28;20336;-65
2021/11/18 14:18:05;;;;;;;;;;;;;;;;;;5089876;28;19928;-62
2021/11/18 14:20:32;;;;;;;;;;;;;;;;;;5081118;28;19931;-64
2021/11/18 14:22:59;;;;;;;;;;;;;;;;;;5090002;28;20006;-64
2021/11/18 14:25:26;;;;;;;;;;;;;;;;;;5087484;28;20014;-65
2021/11/18 14:27:53;;;;;;;;;;;;;;;;;;5081505;28;19935;-64
2021/11/18 14:30:20;;;;;;;;;;;;;;;;;;5084162;28;19932;-64
2021/11/18 14:32:47;;;;;;;;;;;;;;;;;;5081324;28;19952;-63
2021/11/18 14:35:14;;;;;;;;;;;;;;;;;;5082698;28;19938;-64
2021/11/18 14:37:41;;;;;;;;;;;;;;;;;;5089041;28;20799;-64
2021/11/18 14:40:08;;;;;;;;;;;;;;;;;;5085155;28;19974;-64
2021/11/18 14:42:35;;;;;;;;;;;;;;;;;;5088915;28;19938;-65
2021/11/18 14:45:02;;;;;;;;;;;;;;;;;;5094666;28;19931;-65
2021/11/18 14:47:31;;;;;;;;;;;;;;;;;;5088813;28;19925;-64
2021/11/18 14:49:58;;;;;;;;;;;;;;;;;;5086399;28;19924;-64
2021/11/18 14:52:25;;;;;;;;;;;;;;;;;;5092093;28;19946;-65
2021/11/18 14:54:52;;;;;;;;;;;;;;;;;;5079447;28;19935;-64
2021/11/18 14:57:19;;;;;;;;;;;;;;;;;;5082308;28;20007;-64
2021/11/18 14:59:46;;;;;;;;;;;;;;;;;;5082755;28;19975;-65
2021/11/18 15:02:13;;;;;;;;;;;;;;;;;;5078017;28;19928;-65
2021/11/18 15:04:41;;;;;;;;;;;;;;;;;;5079792;28;19924;-65
2021/11/18 15:07:08;;;;;;;;;;;;;;;;;;5080056;28;20426;-65
2021/11/18 15:09:35;;;;;;;;;;;;;;;;;;5079434;28;19930;-67
2021/11/18 15:12:02;;;;;;;;;;;;;;;;;;5080636;28;19932;-64
2021/11/18 15:14:29;;;;;;;;;;;;;;;;;;5082175;28;19935;-64
2021/11/18 15:16:56;;;;;;;;;;;;;;;;;;5079667;28;19975;-64
2021/11/18 15:19:23;;;;;;;;;;;;;;;;;;5076932;28;19932;-66
2021/11/18 15:21:50;;;;;;;;;;;;;;;;;;5072183;28;19924;-65
2021/11/18 15:24:17;;;;;;;;;;;;;;;;;;5081255;28;20126;-65
2021/11/18 15:26:44;;;;;;;;;;;;;;;;;;5082008;28;19924;-64
2021/11/18 15:29:11;;;;;;;;;;;;;;;;;;5069358;28;19987;-65
2021/11/18 15:31:38;;;;;;;;;;;;;;;;;;5080052;28;19935;-65
2021/11/18 15:34:05;;;;;;;;;;;;;;;;;;5075683;28;19928;-65
2021/11/18 15:36:32;;;;;;;;;;;;;;;;;;5081743;28;19924;-65
2021/11/18 15:38:59;;;;;;;;;;;;;;;;;;5080972;28;19924;-65
2021/11/18 15:41:26;;;;;;;;;;;;;;;;;;5083912;28;20306;-65
2021/11/18 15:43:53;;;;;;;;;;;;;;;;;;5082048;28;19928;-65
2021/11/18 15:46:20;;;;;;;;;;;;;;;;;;5079569;28;19931;-65
2021/11/18 15:48:49;;;;;;;;;;;;;;;;;;5078239;28;20424;-65
2021/11/18 15:51:16;;;;;;;;;;;;;;;;;;5077802;28;19997;-65
2021/11/18 15:53:43;;;;;;;;;;;;;;;;;;5081174;28;19938;-65
2021/11/18 15:56:10;;;;;;;;;;;;;;;;;;5080791;28;20340;-65
2021/11/18 15:58:37;;;;;;;;;;;;;;;;;;5082275;28;19925;-65
2021/11/18 16:01:04;;;;;;;;;;;;;;;;;;5077701;28;19958;-65
2021/11/18 16:03:31;;;;;;;;;;;;;;;;;;5075399;28;20027;-65
2021/11/18 16:05:58;;;;;;;;;;;;;;;;;;5076241;28;19924;-65
2021/11/18 16:08:27;;;;;;;;;;;;;;;;;;5076371;28;19928;-65
2021/11/18 16:10:54;;;;;;;;;;;;;;;;;;5074419;28;19932;-65
2021/11/18 16:13:21;;;;;;;;;;;;;;;;;;5080251;28;19924;-65
2021/11/18 16:15:51;;;;;;;;;;;;;;;;;;5078891;28;19924;-65
2021/11/18 16:18:18;;;;;;;;;;;;;;;;;;5080374;28;19963;-65
2021/11/18 16:20:45;;;;;;;;;;;;;;;;;;5083108;28;19924;-65
2021/11/18 16:23:12;;;;;;;;;;;;;;;;;;5084455;28;20863;-65
2021/11/18 16:25:39;;;;;;;;;;;;;;;;;;5090044;22;20341;-66
2021/11/18 16:28:06;;;;;;;;;;;;;;;;;;5046401;28;19925;-68
2021/11/18 16:30:33;;;;;;;;;;;;;;;;;;5045103;28;19932;-68
2021/11/18 16:33:00;;;;;;;;;;;;;;;;;;5049334;28;19929;-68
2021/11/18 16:35:27;;;;;;;;;;;;;;;;;;5040398;28;19983;-67
2021/11/18 16:37:54;;;;;;;;;;;;;;;;;;5027412;28;19932;-66
2021/11/18 16:40:23;;;;;;;;;;;;;;;;;;5026358;28;19925;-68
2021/11/18 16:42:50;;;;;;;;;;;;;;;;;;5022238;28;20171;-66